sensor_id;sensor_type;location;lat;lon;timestamp;temperature;humidity
20366;DHT22;10341;49.894;8.822;2023-04-24T00:00:57;11.60;99.90
20366;DHT22;10341;49.894;8.822;2023-04-24T00:06:17;11.60;99.90
20366;DHT22;10341;49.894;8.822;2023-04-24T00:11:37;11.60;99.90
20366;DHT22;10341;49.894;8.822;2023-04-24T00:16:56;11.70;99.90
20366;DHT22;10341;49.894;8.822;2023-04-24T00:22:15;11.70;99.90
20366;DHT22;10341;49.894;8.822;2023-04-24T00:27:34;11.70;99.90
20366;DHT22;10341;49.894;8.822;2023-04-24T00:32:56;11.60;99.90
20366;DHT22;10341;49.894;8.822;2023-04-24T00:38:16;11.60;99.90
20366;DHT22;10341;49.894;8.822;2023-04-24T00:43:35;11.60;99.90
20366;DHT22;10341;49.894;8.822;2023-04-24T00:48:55;11.70;99.90
20366;DHT22;10341;49.894;8.822;2023-04-24T00:54:15;11.70;99.90
20366;DHT22;10341;49.894;8.822;2023-04-24T00:59:35;11.70;99.90
20366;DHT22;10341;49.894;8.822;2023-04-24T01:04:55;11.70;99.90
20366;DHT22;10341;49.894;8.822;2023-04-24T01:10:15;11.80;99.90
20366;DHT22;10341;49.894;8.822;2023-04-24T01:15:38;11.80;99.90
20366;DHT22;10341;49.894;8.822;2023-04-24T01:20:58;11.90;99.90
20366;DHT22;10341;49.894;8.822;2023-04-24T01:26:18;11.90;99.90
20366;DHT22;10341;49.894;8.822;2023-04-24T01:31:39;11.90;99.90
20366;DHT22;10341;49.894;8.822;2023-04-24T01:36:59;11.90;99.90
20366;DHT22;10341;49.894;8.822;2023-04-24T01:42:19;11.90;99.90
20366;DHT22;10341;49.894;8.822;2023-04-24T01:47:40;11.90;99.90
20366;DHT22;10341;49.894;8.822;2023-04-24T01:52:59;11.80;99.90
20366;DHT22;10341;49.894;8.822;2023-04-24T01:58:19;11.70;99.90
20366;DHT22;10341;49.894;8.822;2023-04-24T02:03:38;11.80;99.90
20366;DHT22;10341;49.894;8.822;2023-04-24T02:08:59;11.70;99.90
20366;DHT22;10341;49.894;8.822;2023-04-24T02:14:18;11.60;99.90
20366;DHT22;10341;49.894;8.822;2023-04-24T02:19:38;11.50;99.90
20366;DHT22;10341;49.894;8.822;2023-04-24T02:24:58;11.60;99.90
20366;DHT22;10341;49.894;8.822;2023-04-24T02:30:17;11.60;99.90
20366;DHT22;10341;49.894;8.822;2023-04-24T02:35:38;11.70;99.90
20366;DHT22;10341;49.894;8.822;2023-04-24T02:40:58;11.70;99.90
20366;DHT22;10341;49.894;8.822;2023-04-24T02:46:19;11.70;99.90
20366;DHT22;10341;49.894;8.822;2023-04-24T02:51:38;11.70;99.90
20366;DHT22;10341;49.894;8.822;2023-04-24T02:57:00;11.60;99.90
20366;DHT22;10341;49.894;8.822;2023-04-24T03:02:20;11.60;99.90
20366;DHT22;10341;49.894;8.822;2023-04-24T03:07:39;11.60;99.90
20366;DHT22;10341;49.894;8.822;2023-04-24T03:12:59;11.60;99.90
20366;DHT22;10341;49.894;8.822;2023-04-24T03:18:18;11.60;99.90
20366;DHT22;10341;49.894;8.822;2023-04-24T03:23:37;11.60;99.90
20366;DHT22;10341;49.894;8.822;2023-04-24T03:28:56;11.60;99.90
20366;DHT22;10341;49.894;8.822;2023-04-24T03:34:16;11.50;99.90
20366;DHT22;10341;49.894;8.822;2023-04-24T03:39:37;11.50;99.90
20366;DHT22;10341;49.894;8.822;2023-04-24T03:44:56;11.30;99.90
20366;DHT22;10341;49.894;8.822;2023-04-24T03:50:20;11.00;99.90
20366;DHT22;10341;49.894;8.822;2023-04-24T03:55:41;10.70;99.90
20366;DHT22;10341;49.894;8.822;2023-04-24T04:01:01;10.60;99.90
20366;DHT22;10341;49.894;8.822;2023-04-24T04:06:31;10.50;99.90
20366;DHT22;10341;49.894;8.822;2023-04-24T04:11:52;10.40;99.90
20366;DHT22;10341;49.894;8.822;2023-04-24T04:17:12;10.20;99.90
20366;DHT22;10341;49.894;8.822;2023-04-24T04:22:33;10.10;99.90
20366;DHT22;10341;49.894;8.822;2023-04-24T04:27:54;10.10;99.90
20366;DHT22;10341;49.894;8.822;2023-04-24T04:33:13;10.00;99.90
20366;DHT22;10341;49.894;8.822;2023-04-24T04:38:34;9.90;99.90
20366;DHT22;10341;49.894;8.822;2023-04-24T04:44:03;9.80;99.90
20366;DHT22;10341;49.894;8.822;2023-04-24T04:49:24;9.80;99.90
20366;DHT22;10341;49.894;8.822;2023-04-24T04:54:44;9.70;99.90
20366;DHT22;10341;49.894;8.822;2023-04-24T05:00:06;9.70;99.90
20366;DHT22;10341;49.894;8.822;2023-04-24T05:05:36;9.70;99.90
20366;DHT22;10341;49.894;8.822;2023-04-24T05:11:00;9.60;99.90
20366;DHT22;10341;49.894;8.822;2023-04-24T05:16:21;9.60;99.90
20366;DHT22;10341;49.894;8.822;2023-04-24T05:21:43;9.80;99.90
20366;DHT22;10341;49.894;8.822;2023-04-24T05:27:04;9.90;99.90
20366;DHT22;10341;49.894;8.822;2023-04-24T05:32:28;10.10;99.90
20366;DHT22;10341;49.894;8.822;2023-04-24T05:37:48;10.30;99.90
20366;DHT22;10341;49.894;8.822;2023-04-24T05:43:09;10.40;99.90
20366;DHT22;10341;49.894;8.822;2023-04-24T05:48:29;10.50;99.90
20366;DHT22;10341;49.894;8.822;2023-04-24T05:53:49;10.50;99.90
20366;DHT22;10341;49.894;8.822;2023-04-24T05:59:08;10.60;99.90
20366;DHT22;10341;49.894;8.822;2023-04-24T06:04:28;10.70;99.90
20366;DHT22;10341;49.894;8.822;2023-04-24T06:09:48;10.90;99.90
20366;DHT22;10341;49.894;8.822;2023-04-24T06:15:09;11.00;99.90
20366;DHT22;10341;49.894;8.822;2023-04-24T06:20:49;11.10;99.90
20366;DHT22;10341;49.894;8.822;2023-04-24T06:26:09;11.40;99.90
20366;DHT22;10341;49.894;8.822;2023-04-24T06:31:28;11.50;99.90
20366;DHT22;10341;49.894;8.822;2023-04-24T06:36:48;11.40;99.90
20366;DHT22;10341;49.894;8.822;2023-04-24T06:42:07;11.30;99.90
20366;DHT22;10341;49.894;8.822;2023-04-24T06:47:28;11.50;99.90
20366;DHT22;10341;49.894;8.822;2023-04-24T06:52:48;11.80;99.90
20366;DHT22;10341;49.894;8.822;2023-04-24T06:58:07;12.00;99.90
20366;DHT22;10341;49.894;8.822;2023-04-24T07:03:27;12.40;99.90
20366;DHT22;10341;49.894;8.822;2023-04-24T07:08:46;12.50;99.90
20366;DHT22;10341;49.894;8.822;2023-04-24T07:14:06;12.60;99.90
20366;DHT22;10341;49.894;8.822;2023-04-24T07:19:26;13.10;99.90
20366;DHT22;10341;49.894;8.822;2023-04-24T07:24:45;13.30;99.90
20366;DHT22;10341;49.894;8.822;2023-04-24T07:30:05;13.40;99.90
20366;DHT22;10341;49.894;8.822;2023-04-24T07:35:25;13.40;99.90
20366;DHT22;10341;49.894;8.822;2023-04-24T07:40:44;13.40;99.90
20366;DHT22;10341;49.894;8.822;2023-04-24T07:46:04;13.60;99.90
20366;DHT22;10341;49.894;8.822;2023-04-24T07:51:23;13.70;99.90
20366;DHT22;10341;49.894;8.822;2023-04-24T07:56:43;13.00;99.90
20366;DHT22;10341;49.894;8.822;2023-04-24T08:02:02;12.50;99.90
20366;DHT22;10341;49.894;8.822;2023-04-24T08:07:23;12.50;99.90
20366;DHT22;10341;49.894;8.822;2023-04-24T08:12:42;13.70;99.90
20366;DHT22;10341;49.894;8.822;2023-04-24T08:18:02;14.20;99.90
20366;DHT22;10341;49.894;8.822;2023-04-24T08:23:21;13.10;99.90
20366;DHT22;10341;49.894;8.822;2023-04-24T08:28:41;12.60;99.90
20366;DHT22;10341;49.894;8.822;2023-04-24T08:34:01;14.40;99.90
20366;DHT22;10341;49.894;8.822;2023-04-24T08:39:20;15.20;99.90
20366;DHT22;10341;49.894;8.822;2023-04-24T08:44:40;14.40;99.90
20366;DHT22;10341;49.894;8.822;2023-04-24T08:50:02;13.60;99.90
20366;DHT22;10341;49.894;8.822;2023-04-24T08:55:22;13.40;99.90
20366;DHT22;10341;49.894;8.822;2023-04-24T09:00:42;13.70;99.90
20366;DHT22;10341;49.894;8.822;2023-04-24T09:06:06;13.50;99.90
20366;DHT22;10341;49.894;8.822;2023-04-24T09:11:27;15.30;99.90
20366;DHT22;10341;49.894;8.822;2023-04-24T09:16:47;14.70;99.90
20366;DHT22;10341;49.894;8.822;2023-04-24T09:22:09;14.90;99.90
20366;DHT22;10341;49.894;8.822;2023-04-24T09:27:31;15.30;99.90
20366;DHT22;10341;49.894;8.822;2023-04-24T09:32:53;14.50;99.90
20366;DHT22;10341;49.894;8.822;2023-04-24T09:38:38;14.10;99.90
20366;DHT22;10341;49.894;8.822;2023-04-24T09:44:11;17.20;99.90
20366;DHT22;10341;49.894;8.822;2023-04-24T09:49:31;15.70;99.90
20366;DHT22;10341;49.894;8.822;2023-04-24T09:54:55;14.60;99.90
20366;DHT22;10341;49.894;8.822;2023-04-24T10:00:25;14.00;99.90
20366;DHT22;10341;49.894;8.822;2023-04-24T10:05:46;13.20;99.90
20366;DHT22;10341;49.894;8.822;2023-04-24T10:11:06;13.20;99.90
20366;DHT22;10341;49.894;8.822;2023-04-24T10:16:27;13.10;99.90
20366;DHT22;10341;49.894;8.822;2023-04-24T10:21:47;13.00;99.90
20366;DHT22;10341;49.894;8.822;2023-04-24T10:27:08;13.10;99.90
20366;DHT22;10341;49.894;8.822;2023-04-24T10:32:27;13.00;99.90
20366;DHT22;10341;49.894;8.822;2023-04-24T10:37:51;12.80;99.90
20366;DHT22;10341;49.894;8.822;2023-04-24T10:43:17;12.30;99.90
20366;DHT22;10341;49.894;8.822;2023-04-24T10:48:42;12.20;99.90
20366;DHT22;10341;49.894;8.822;2023-04-24T11:00:19;15.20;99.90
20366;DHT22;10341;49.894;8.822;2023-04-24T11:06:12;15.40;99.90
20366;DHT22;10341;49.894;8.822;2023-04-24T11:11:30;16.90;99.90
20366;DHT22;10341;49.894;8.822;2023-04-24T11:16:53;15.80;99.90
20366;DHT22;10341;49.894;8.822;2023-04-24T11:22:16;14.70;99.90
20366;DHT22;10341;49.894;8.822;2023-04-24T11:27:44;13.60;99.90
20366;DHT22;10341;49.894;8.822;2023-04-24T11:33:05;12.70;99.90
20366;DHT22;10341;49.894;8.822;2023-04-24T11:38:25;12.20;99.90
20366;DHT22;10341;49.894;8.822;2023-04-24T11:43:45;11.70;99.90
20366;DHT22;10341;49.894;8.822;2023-04-24T11:49:05;11.20;99.90
20366;DHT22;10341;49.894;8.822;2023-04-24T11:54:25;11.10;99.90
20366;DHT22;10341;49.894;8.822;2023-04-24T11:59:45;11.00;99.90
20366;DHT22;10341;49.894;8.822;2023-04-24T12:05:04;10.90;99.90
20366;DHT22;10341;49.894;8.822;2023-04-24T12:10:25;10.90;99.90
20366;DHT22;10341;49.894;8.822;2023-04-24T12:15:45;10.80;99.90
20366;DHT22;10341;49.894;8.822;2023-04-24T12:21:21;10.70;99.90
20366;DHT22;10341;49.894;8.822;2023-04-24T12:26:43;10.70;99.90
20366;DHT22;10341;49.894;8.822;2023-04-24T12:32:02;11.00;99.90
20366;DHT22;10341;49.894;8.822;2023-04-24T12:37:26;11.60;99.90
20366;DHT22;10341;49.894;8.822;2023-04-24T12:42:47;14.40;99.90
20366;DHT22;10341;49.894;8.822;2023-04-24T12:48:07;16.50;99.90
20366;DHT22;10341;49.894;8.822;2023-04-24T12:53:28;17.40;99.90
20366;DHT22;10341;49.894;8.822;2023-04-24T12:58:48;18.20;99.90
20366;DHT22;10341;49.894;8.822;2023-04-24T13:04:08;18.20;99.90
20366;DHT22;10341;49.894;8.822;2023-04-24T13:09:27;16.90;99.90
20366;DHT22;10341;49.894;8.822;2023-04-24T13:14:47;16.80;99.90
20366;DHT22;10341;49.894;8.822;2023-04-24T13:20:07;16.50;99.90
20366;DHT22;10341;49.894;8.822;2023-04-24T13:25:26;16.30;99.90
20366;DHT22;10341;49.894;8.822;2023-04-24T13:30:46;14.90;99.90
20366;DHT22;10341;49.894;8.822;2023-04-24T13:36:06;14.70;99.90
20366;DHT22;10341;49.894;8.822;2023-04-24T13:41:25;16.10;99.90
20366;DHT22;10341;49.894;8.822;2023-04-24T13:46:47;16.50;99.90
20366;DHT22;10341;49.894;8.822;2023-04-24T13:52:06;16.00;99.90
20366;DHT22;10341;49.894;8.822;2023-04-24T13:57:26;16.30;99.90
20366;DHT22;10341;49.894;8.822;2023-04-24T14:02:46;15.50;99.90
20366;DHT22;10341;49.894;8.822;2023-04-24T14:08:06;14.60;99.90
20366;DHT22;10341;49.894;8.822;2023-04-24T14:13:25;14.00;99.90
20366;DHT22;10341;49.894;8.822;2023-04-24T14:18:45;13.60;99.90
20366;DHT22;10341;49.894;8.822;2023-04-24T14:24:05;13.50;99.90
20366;DHT22;10341;49.894;8.822;2023-04-24T14:29:24;13.50;99.90
20366;DHT22;10341;49.894;8.822;2023-04-24T14:34:44;13.80;99.90
20366;DHT22;10341;49.894;8.822;2023-04-24T14:40:04;13.50;99.90
20366;DHT22;10341;49.894;8.822;2023-04-24T14:45:25;13.30;99.90
20366;DHT22;10341;49.894;8.822;2023-04-24T14:50:45;13.20;99.90
20366;DHT22;10341;49.894;8.822;2023-04-24T14:56:05;13.30;99.90
20366;DHT22;10341;49.894;8.822;2023-04-24T15:01:25;13.40;99.90
20366;DHT22;10341;49.894;8.822;2023-04-24T15:06:44;13.50;99.90
20366;DHT22;10341;49.894;8.822;2023-04-24T15:12:04;13.60;99.90
20366;DHT22;10341;49.894;8.822;2023-04-24T15:17:23;13.70;99.90
20366;DHT22;10341;49.894;8.822;2023-04-24T15:22:43;13.70;99.90
20366;DHT22;10341;49.894;8.822;2023-04-24T15:28:03;13.80;99.90
20366;DHT22;10341;49.894;8.822;2023-04-24T15:33:23;13.70;99.90
20366;DHT22;10341;49.894;8.822;2023-04-24T15:38:45;13.70;99.90
20366;DHT22;10341;49.894;8.822;2023-04-24T15:44:04;14.00;99.90
20366;DHT22;10341;49.894;8.822;2023-04-24T15:49:23;16.20;99.90
20366;DHT22;10341;49.894;8.822;2023-04-24T15:54:44;16.60;99.90
20366;DHT22;10341;49.894;8.822;2023-04-24T16:00:05;15.50;99.90
20366;DHT22;10341;49.894;8.822;2023-04-24T16:05:32;14.90;99.90
20366;DHT22;10341;49.894;8.822;2023-04-24T16:10:52;15.00;99.90
20366;DHT22;10341;49.894;8.822;2023-04-24T16:16:10;15.30;99.90
20366;DHT22;10341;49.894;8.822;2023-04-24T16:21:29;14.90;99.90
20366;DHT22;10341;49.894;8.822;2023-04-24T16:26:51;14.80;99.90
20366;DHT22;10341;49.894;8.822;2023-04-24T16:32:10;14.50;99.90
20366;DHT22;10341;49.894;8.822;2023-04-24T16:37:29;14.00;99.90
20366;DHT22;10341;49.894;8.822;2023-04-24T16:42:48;13.80;99.90
20366;DHT22;10341;49.894;8.822;2023-04-24T16:48:09;13.70;99.90
20366;DHT22;10341;49.894;8.822;2023-04-24T16:53:29;13.60;99.90
20366;DHT22;10341;49.894;8.822;2023-04-24T16:58:49;13.40;99.90
20366;DHT22;10341;49.894;8.822;2023-04-24T17:04:08;13.80;99.90
20366;DHT22;10341;49.894;8.822;2023-04-24T17:09:28;14.50;99.90
20366;DHT22;10341;49.894;8.822;2023-04-24T17:14:47;15.20;99.90
20366;DHT22;10341;49.894;8.822;2023-04-24T17:20:07;15.40;99.90
20366;DHT22;10341;49.894;8.822;2023-04-24T17:25:27;14.30;99.90
20366;DHT22;10341;49.894;8.822;2023-04-24T17:30:46;13.50;99.90
20366;DHT22;10341;49.894;8.822;2023-04-24T17:36:06;12.90;99.90
20366;DHT22;10341;49.894;8.822;2023-04-24T17:41:25;12.40;99.90
20366;DHT22;10341;49.894;8.822;2023-04-24T17:46:45;12.30;99.90
20366;DHT22;10341;49.894;8.822;2023-04-24T17:52:05;12.10;99.90
20366;DHT22;10341;49.894;8.822;2023-04-24T17:57:24;11.60;99.90
20366;DHT22;10341;49.894;8.822;2023-04-24T18:02:44;11.20;99.90
20366;DHT22;10341;49.894;8.822;2023-04-24T18:08:03;11.00;99.90
20366;DHT22;10341;49.894;8.822;2023-04-24T18:13:23;10.80;99.90
20366;DHT22;10341;49.894;8.822;2023-04-24T18:18:43;10.60;99.90
20366;DHT22;10341;49.894;8.822;2023-04-24T18:24:03;10.20;99.90
20366;DHT22;10341;49.894;8.822;2023-04-24T18:29:22;10.00;99.90
20366;DHT22;10341;49.894;8.822;2023-04-24T18:34:41;9.90;99.90
20366;DHT22;10341;49.894;8.822;2023-04-24T18:40:00;9.80;99.90
20366;DHT22;10341;49.894;8.822;2023-04-24T18:45:20;9.70;99.90
20366;DHT22;10341;49.894;8.822;2023-04-24T18:50:39;9.70;99.90
20366;DHT22;10341;49.894;8.822;2023-04-24T18:55:59;9.60;99.90
20366;DHT22;10341;49.894;8.822;2023-04-24T19:01:22;9.40;99.90
20366;DHT22;10341;49.894;8.822;2023-04-24T19:06:41;9.40;99.90
20366;DHT22;10341;49.894;8.822;2023-04-24T19:12:01;9.30;99.90
20366;DHT22;10341;49.894;8.822;2023-04-24T19:17:21;9.30;99.90
20366;DHT22;10341;49.894;8.822;2023-04-24T19:22:43;9.30;99.90
20366;DHT22;10341;49.894;8.822;2023-04-24T19:28:04;9.30;99.90
20366;DHT22;10341;49.894;8.822;2023-04-24T19:33:24;9.40;99.90
20366;DHT22;10341;49.894;8.822;2023-04-24T19:38:44;9.30;99.90
20366;DHT22;10341;49.894;8.822;2023-04-24T19:44:04;9.30;99.90
20366;DHT22;10341;49.894;8.822;2023-04-24T19:49:24;9.30;99.90
20366;DHT22;10341;49.894;8.822;2023-04-24T19:54:43;9.20;99.90
20366;DHT22;10341;49.894;8.822;2023-04-24T20:00:02;9.20;99.90
20366;DHT22;10341;49.894;8.822;2023-04-24T20:05:24;9.20;99.90
20366;DHT22;10341;49.894;8.822;2023-04-24T20:10:43;9.20;99.90
20366;DHT22;10341;49.894;8.822;2023-04-24T20:16:03;9.20;99.90
20366;DHT22;10341;49.894;8.822;2023-04-24T20:21:23;9.20;99.90
20366;DHT22;10341;49.894;8.822;2023-04-24T20:26:42;9.30;99.90
20366;DHT22;10341;49.894;8.822;2023-04-24T20:32:02;9.20;99.90
20366;DHT22;10341;49.894;8.822;2023-04-24T20:37:21;9.20;99.90
20366;DHT22;10341;49.894;8.822;2023-04-24T20:42:40;9.10;99.90
20366;DHT22;10341;49.894;8.822;2023-04-24T20:47:59;9.10;99.90
20366;DHT22;10341;49.894;8.822;2023-04-24T20:53:19;9.00;99.90
20366;DHT22;10341;49.894;8.822;2023-04-24T20:58:38;9.00;99.90
20366;DHT22;10341;49.894;8.822;2023-04-24T21:03:58;9.00;99.90
20366;DHT22;10341;49.894;8.822;2023-04-24T21:09:17;9.00;99.90
20366;DHT22;10341;49.894;8.822;2023-04-24T21:14:37;9.10;99.90
20366;DHT22;10341;49.894;8.822;2023-04-24T21:19:56;9.10;99.90
20366;DHT22;10341;49.894;8.822;2023-04-24T21:25:15;9.10;99.90
20366;DHT22;10341;49.894;8.822;2023-04-24T21:30:34;9.10;99.90
20366;DHT22;10341;49.894;8.822;2023-04-24T21:35:54;9.20;99.90
20366;DHT22;10341;49.894;8.822;2023-04-24T21:41:14;9.20;99.90
20366;DHT22;10341;49.894;8.822;2023-04-24T21:46:34;9.20;99.90
20366;DHT22;10341;49.894;8.822;2023-04-24T21:51:54;9.20;99.90
20366;DHT22;10341;49.894;8.822;2023-04-24T21:57:14;9.20;99.90
20366;DHT22;10341;49.894;8.822;2023-04-24T22:02:34;9.20;99.90
20366;DHT22;10341;49.894;8.822;2023-04-24T22:07:53;9.20;99.90
20366;DHT22;10341;49.894;8.822;2023-04-24T22:13:14;9.20;99.90
20366;DHT22;10341;49.894;8.822;2023-04-24T22:18:33;9.20;99.90
20366;DHT22;10341;49.894;8.822;2023-04-24T22:23:52;9.30;99.90
20366;DHT22;10341;49.894;8.822;2023-04-24T22:29:11;9.20;99.90
20366;DHT22;10341;49.894;8.822;2023-04-24T22:34:30;9.20;99.90
20366;DHT22;10341;49.894;8.822;2023-04-24T22:39:49;9.20;99.90
20366;DHT22;10341;49.894;8.822;2023-04-24T22:45:09;9.20;99.90
20366;DHT22;10341;49.894;8.822;2023-04-24T22:50:30;9.20;99.90
20366;DHT22;10341;49.894;8.822;2023-04-24T22:55:50;9.10;99.90
20366;DHT22;10341;49.894;8.822;2023-04-24T23:01:09;9.00;99.90
20366;DHT22;10341;49.894;8.822;2023-04-24T23:06:29;9.00;99.90
20366;DHT22;10341;49.894;8.822;2023-04-24T23:11:49;8.90;99.90
20366;DHT22;10341;49.894;8.822;2023-04-24T23:17:08;8.90;99.90
20366;DHT22;10341;49.894;8.822;2023-04-24T23:28:01;8.80;99.90
20366;DHT22;10341;49.894;8.822;2023-04-24T23:33:20;8.80;99.90
20366;DHT22;10341;49.894;8.822;2023-04-24T23:38:40;8.80;99.90
20366;DHT22;10341;49.894;8.822;2023-04-24T23:43:59;8.60;99.90
20366;DHT22;10341;49.894;8.822;2023-04-24T23:49:18;8.50;99.90
20366;DHT22;10341;49.894;8.822;2023-04-24T23:54:37;8.50;99.90
20366;DHT22;10341;49.894;8.822;2023-04-24T23:59:56;8.40;99.90
